Aviation Digital Data Service (ADDS)

Output produced by METARs form (0300 UTC 18 August 2017)
found at http://www.aviationweather.gov/adds/metars/
 
LYBE 180230Z 21004KT CAVOK 20/15 Q1017 NOSIG
TAF LYBE 172300Z 1800/1824 22006KT CAVOK TX35/1814Z TN20/1803Z
       
LYNI 180230Z 11003KT CAVOK 17/14 Q1018
TAF LYNI 172300Z 1800/1824 35006KT 9999 SCT050 TX33/1814Z TN15/1803Z 
     TEMPO 1803/1806 4000 BR
       
LYVR 180230Z VRB02KT CAVOK 18/18 Q1017 NOSIG
TAF LYVR 172300Z 1800/1824 02006KT CAVOK TX34/1814Z TN19/1804Z
       
LYKV 180230Z 00000KT CAVOK 15/14 Q1018 NOSIG
TAF LYKV 172300Z 1800/1824 VRB02KT CAVOK TX33/1813Z TN15/1803Z 
     TEMPO 1803/1805 5000 BR
       
LYBT 180230Z 12002KT CAVOK 17/13 Q1017 NOSIG
TAF LYBT 172300Z 1800/1824 33006KT CAVOK TX35/1814Z TN18/1804Z
       
LYUZ 180230Z AUTO 32006KT CAVOK 16/11 Q1022
TAF LYUZ 171100Z 1712/1812 02006KT 9999 SCT020 TX26/1714Z TN16/1803Z